Time;durP1;ratioP1;P1;durP2;ratioP2;P2;SDS_P1;SDS_P2;PMS_P1;PMS_P2;Temp;Humidity;BMP_temperature;BMP_pressure;BME280_temperature;BME280_humidity;BME280_pressure;Samples;Min_cycle;Max_cycle;Signal;HPM_P1;HPM_P2
2023/07/29 00:00:43;;;;;;;10.98;1.75;;;;;;;13.74;100.00;98958.03;5071099;28;20058;-80
2023/07/29 00:03:09;;;;;;;8.43;1.27;;;;;;;13.77;100.00;98951.53;5101164;28;20055;-80
2023/07/29 00:05:36;;;;;;;11.30;1.60;;;;;;;13.75;100.00;98949.09;5103686;27;20545;-80
2023/07/29 00:08:02;;;;;;;9.20;2.50;;;;;;;13.75;100.00;98958.88;5103027;28;20035;-80
2023/07/29 00:10:29;;;;;;;10.00;1.20;;;;;;;13.77;100.00;98951.53;5094475;28;20397;-80
2023/07/29 00:12:54;;;;;;;7.43;1.58;;;;;;;13.73;100.00;98953.75;5062700;28;20093;-81
2023/07/29 00:15:20;;;;;;;12.95;1.55;;;;;;;13.72;100.00;98962.75;5069222;28;20037;-80
2023/07/29 00:17:46;;;;;;;14.07;1.75;;;;;;;13.69;100.00;98951.72;5079672;28;20051;-80
2023/07/29 00:20:12;;;;;;;10.23;1.42;;;;;;;13.68;100.00;98955.41;5097416;28;20032;-81
2023/07/29 00:22:38;;;;;;;14.75;1.10;;;;;;;13.67;100.00;98953.75;5085361;28;20439;-81
2023/07/29 00:25:04;;;;;;;7.45;1.65;;;;;;;13.67;100.00;98949.25;5095018;28;20020;-81
2023/07/29 00:27:30;;;;;;;10.02;2.45;;;;;;;13.66;100.00;98952.13;5105482;27;20024;-81
2023/07/29 00:29:55;;;;;;;10.63;1.67;;;;;;;13.61;100.00;98953.56;5083242;28;20032;-81
2023/07/29 00:32:21;;;;;;;8.00;1.63;;;;;;;13.60;100.00;98945.78;5068402;28;20433;-80
2023/07/29 00:34:47;;;;;;;10.30;1.42;;;;;;;13.54;100.00;98944.75;5079927;28;20097;-80
2023/07/29 00:37:13;;;;;;;8.05;1.40;;;;;;;13.48;100.00;98951.66;5079690;28;20028;-81
2023/07/29 00:39:39;;;;;;;9.38;1.50;;;;;;;13.47;100.00;98949.19;5069775;28;20409;-80
2023/07/29 00:42:05;;;;;;;17.48;1.98;;;;;;;13.44;100.00;98954.91;4999544;28;20063;-80
2023/07/29 00:44:34;;;;;;;8.45;1.42;;;;;;;13.44;100.00;98954.91;5085779;28;20034;-81
2023/07/29 00:47:04;;;;;;;10.77;2.10;;;;;;;13.43;100.00;98954.09;5055657;28;20027;-81
2023/07/29 00:49:31;;;;;;;16.48;1.70;;;;;;;13.39;100.00;98950.19;5065865;28;20034;-81
2023/07/29 00:51:57;;;;;;;10.02;1.70;;;;;;;13.38;100.00;98954.69;5097708;28;20082;-81
2023/07/29 00:54:24;;;;;;;11.05;2.03;;;;;;;13.38;100.00;98954.69;5069958;28;20082;-81
2023/07/29 00:56:51;;;;;;;11.38;1.48;;;;;;;13.40;100.00;98954.47;5061807;28;20032;-80
2023/07/29 00:59:17;;;;;;;11.45;1.70;;;;;;;13.35;100.00;98948.94;5064383;28;20556;-81
2023/07/29 01:01:42;;;;;;;11.45;2.00;;;;;;;13.29;100.00;98950.56;5070808;28;20039;-81
2023/07/29 01:04:08;;;;;;;13.43;1.73;;;;;;;13.22;100.00;98955.06;5092667;28;20049;-80
2023/07/29 01:06:40;;;;;;;9.57;1.95;;;;;;;13.14;100.00;98950.72;5057056;28;20038;-80
2023/07/29 01:09:17;;;;;;;9.30;1.52;;;;;;;13.11;100.00;98951.94;5068904;28;20043;-81
2023/07/29 01:12:16;;;;;;;11.52;1.52;;;;;;;13.07;100.00;98949.88;5076026;28;20086;-80
2023/07/29 01:14:58;;;;;;;17.15;1.83;;;;;;;13.01;100.00;98954.94;5072156;28;20039;-80
2023/07/29 01:17:34;;;;;;;9.32;2.22;;;;;;;12.98;100.00;98946.59;5091047;28;20388;-80
2023/07/29 01:20:05;;;;;;;;;;;;;;;12.83;100.00;98949.34;5084792;28;20038;-79
2023/07/29 01:22:36;;;;;;;12.57;2.95;;;;;;;12.87;100.00;98951.44;5086939;28;19923;-80
2023/07/29 01:25:03;;;;;;;15.57;2.20;;;;;;;12.90;100.00;98956.34;5066034;28;20089;-80
2023/07/29 01:27:30;;;;;;;14.50;2.15;;;;;;;12.95;100.00;98957.59;5071964;27;20099;-80
2023/07/29 01:29:57;;;;;;;12.02;1.75;;;;;;;13.01;100.00;98959.47;5064335;28;20040;-81
2023/07/29 01:32:45;;;;;;;11.27;2.33;;;;;;;13.07;100.00;98955.19;5093438;28;20040;-81
2023/07/29 01:35:52;;;;;;;10.75;1.90;;;;;;;13.10;100.00;98949.47;5069188;28;20032;-81
2023/07/29 01:38:24;;;;;;;9.23;2.00;;;;;;;13.13;100.00;98952.56;5080048;27;20556;-81
2023/07/29 01:40:52;;;;;;;17.33;2.33;;;;;;;13.19;100.00;98950.94;5095053;28;20043;-81
2023/07/29 01:43:23;;;;;;;12.32;1.90;;;;;;;13.20;100.00;98949.94;5077629;28;20046;-81
2023/07/29 01:45:49;;;;;;;11.63;1.88;;;;;;;13.26;100.00;98951.81;5095297;28;20119;-81
2023/07/29 01:48:16;;;;;;;11.65;2.00;;;;;;;13.31;100.00;98951.19;5073684;27;20032;-81
2023/07/29 01:50:43;;;;;;;12.70;2.08;;;;;;;13.30;100.00;98949.53;5095492;28;20038;-81
2023/07/29 01:53:09;;;;;;;19.65;2.83;;;;;;;13.35;100.00;98948.94;5079760;28;20031;-81
2023/07/29 01:55:35;;;;;;;21.02;1.95;;;;;;;13.33;100.00;98957.09;5078054;28;20069;-80
2023/07/29 01:58:00;;;;;;;14.02;2.65;;;;;;;13.33;100.00;98951.00;5074642;28;20039;-80
2023/07/29 02:00:27;;;;;;;14.77;2.50;;;;;;;13.33;100.00;98949.16;5082144;28;20031;-81
2023/07/29 02:02:52;;;;;;;17.83;3.00;;;;;;;13.32;100.00;98960.78;5089239;28;20094;-81
2023/07/29 02:05:18;;;;;;;13.77;2.00;;;;;;;13.34;100.00;98953.47;5086776;28;20032;-80
2023/07/29 02:07:44;;;;;;;11.32;2.10;;;;;;;13.33;100.00;98951.81;5076173;27;20035;-81
2023/07/29 02:10:10;;;;;;;13.00;2.20;;;;;;;13.30;100.00;98946.91;5063178;28;20032;-80
2023/07/29 02:12:36;;;;;;;13.10;2.75;;;;;;;13.28;100.00;98944.44;5081406;28;20032;-81
2023/07/29 02:15:02;;;;;;;13.43;1.60;;;;;;;13.23;100.00;98946.91;5081827;28;20035;-81
2023/07/29 02:17:28;;;;;;;13.27;2.10;;;;;;;13.18;100.00;98943.19;5081130;28;20123;-81
2023/07/29 02:19:54;;;;;;;10.98;1.77;;;;;;;13.12;100.00;98936.84;5064373;28;20116;-80
2023/07/29 02:22:19;;;;;;;15.00;2.42;;;;;;;13.09;100.00;98945.19;5056867;28;20429;-81
2023/07/29 02:24:45;;;;;;;16.20;2.30;;;;;;;13.01;100.00;98941.69;5054137;28;20036;-80
2023/07/29 02:27:11;;;;;;;15.07;2.05;;;;;;;13.00;100.00;98944.53;5069913;28;20051;-81
2023/07/29 02:29:37;;;;;;;11.32;1.50;;;;;;;12.97;100.00;98943.13;5050757;28;20033;-81
2023/07/29 02:32:03;;;;;;;13.95;1.92;;;;;;;12.93;100.00;98943.69;5070911;28;20071;-81
2023/07/29 02:34:29;;;;;;;8.88;1.55;;;;;;;12.87;100.00;98942.63;5044802;28;20029;-80
2023/07/29 02:36:55;;;;;;;16.23;2.88;;;;;;;12.86;100.00;98941.00;5041776;28;20032;-80
2023/07/29 02:39:21;;;;;;;10.18;1.88;;;;;;;12.86;100.00;98938.38;5056086;28;20174;-81
2023/07/29 02:41:47;;;;;;;13.98;1.83;;;;;;;12.84;100.00;98935.91;5045277;28;20032;-80
2023/07/29 02:44:13;;;;;;;12.07;1.92;;;;;;;12.86;100.00;98933.88;5046585;28;20033;-81
2023/07/29 02:46:39;;;;;;;14.75;1.98;;;;;;;12.86;100.00;98930.41;5043257;28;20070;-80
2023/07/29 02:49:05;;;;;;;6.60;2.05;;;;;;;12.88;100.00;98925.72;5055514;28;20072;-81
2023/07/29 02:51:31;;;;;;;12.15;2.28;;;;;;;12.90;100.00;98932.47;5035547;28;20086;-80
2023/07/29 02:53:57;;;;;;;10.38;2.25;;;;;;;12.90;100.00;98935.13;5066859;28;20383;-80
2023/07/29 02:56:22;;;;;;;14.65;1.98;;;;;;;12.87;100.00;98930.22;5046945;28;20425;-80
2023/07/29 02:58:51;;;;;;;14.18;2.08;;;;;;;12.88;100.00;98931.03;5055172;28;20086;-80
2023/07/29 03:01:18;;;;;;;13.02;2.10;;;;;;;12.86;100.00;98923.28;5062413;28;20036;-81
2023/07/29 03:03:43;;;;;;;11.18;2.10;;;;;;;12.87;100.00;98924.06;5066020;28;20082;-81
2023/07/29 03:06:11;;;;;;;17.52;1.95;;;;;;;12.88;100.00;98926.53;5072437;28;20024;-80
2023/07/29 03:08:37;;;;;;;16.00;2.35;;;;;;;12.88;100.00;98920.44;5046233;28;20033;-80
2023/07/29 03:11:08;;;;;;;13.00;2.03;;;;;;;12.89;100.00;98933.50;5064340;28;20037;-80
2023/07/29 03:13:33;;;;;;;16.02;2.78;;;;;;;12.84;100.00;98929.78;5081803;28;20032;-80
2023/07/29 03:16:06;;;;;;;16.23;2.58;;;;;;;12.84;100.00;98925.31;5032861;28;20048;-79
2023/07/29 03:18:33;;;;;;;12.05;2.35;;;;;;;12.81;100.00;98923.03;5083054;28;20123;-81
2023/07/29 03:20:58;;;;;;;11.88;2.08;;;;;;;12.81;100.00;98928.34;5070875;28;20183;-80
2023/07/29 03:23:24;;;;;;;18.92;2.78;;;;;;;12.74;100.00;98923.00;5056591;28;20033;-81
2023/07/29 03:25:56;;;;;;;17.42;2.00;;;;;;;12.69;100.00;98919.31;5075316;28;20037;-80
2023/07/29 03:28:27;;;;;;;16.92;2.65;;;;;;;12.68;100.00;98929.09;5067202;28;20037;-79
2023/07/29 03:30:56;;;;;;;13.20;2.72;;;;;;;12.69;100.00;98921.97;5059265;28;20040;-79
2023/07/29 03:33:22;;;;;;;12.07;1.80;;;;;;;12.63;100.00;98926.19;5057706;28;20039;-81
2023/07/29 03:35:49;;;;;;;21.90;2.35;;;;;;;12.64;100.00;98925.22;5044250;28;20040;-81
2023/07/29 03:38:14;;;;;;;11.82;2.13;;;;;;;12.65;100.00;98927.66;5034140;28;20039;-81
2023/07/29 03:40:42;;;;;;;8.32;1.42;;;;;;;12.66;100.00;98920.53;5060703;28;20060;-80
2023/07/29 03:43:08;;;;;;;16.95;2.42;;;;;;;12.63;100.00;98932.34;5044507;28;20044;-81
2023/07/29 03:45:35;;;;;;;12.82;2.35;;;;;;;12.62;100.00;98930.69;5064861;28;20479;-81
2023/07/29 03:48:01;;;;;;;12.68;1.90;;;;;;;12.57;100.00;98938.41;5052030;28;20497;-80
2023/07/29 03:50:28;;;;;;;13.02;1.92;;;;;;;12.55;100.00;98934.34;5060351;28;20055;-80
2023/07/29 03:52:54;;;;;;;14.63;1.90;;;;;;;12.53;100.00;98939.81;5026883;28;20033;-80
2023/07/29 03:55:20;;;;;;;16.52;1.90;;;;;;;12.55;100.00;98945.72;5068759;28;20512;-80
2023/07/29 03:57:46;;;;;;;14.18;1.70;;;;;;;12.53;100.00;98929.22;5068450;28;20032;-80
2023/07/29 04:00:13;;;;;;;14.25;2.42;;;;;;;12.51;100.00;98933.91;5063405;28;20025;-81
2023/07/29 04:02:42;;;;;;;12.02;2.20;;;;;;;12.51;100.00;98941.84;5067958;28;20032;-80
2023/07/29 04:05:09;;;;;;;10.18;1.98;;;;;;;12.51;100.00;98937.38;5048498;28;20036;-81
2023/07/29 04:07:36;;;;;;;12.63;2.17;;;;;;;12.53;100.00;98945.13;5052398;28;20037;-80
2023/07/29 04:10:03;;;;;;;10.80;1.90;;;;;;;12.57;100.00;98946.38;5040167;28;20107;-80
2023/07/29 04:12:29;;;;;;;13.02;1.60;;;;;;;12.59;100.00;98943.53;5054399;28;20025;-80
2023/07/29 04:14:55;;;;;;;13.93;1.77;;;;;;;12.61;100.00;98949.44;5032246;28;20127;-80
2023/07/29 04:17:21;;;;;;;8.75;1.35;;;;;;;12.61;100.00;98944.94;5074118;28;20104;-80
2023/07/29 04:19:47;;;;;;;10.90;1.80;;;;;;;12.61;100.00;98950.25;5089284;28;20032;-80
2023/07/29 04:22:15;;;;;;;9.30;1.63;;;;;;;12.63;100.00;98955.34;5052625;28;20081;-80
2023/07/29 04:24:41;;;;;;;11.05;2.10;;;;;;;12.65;100.00;98954.16;5065468;28;20485;-80
2023/07/29 04:27:07;;;;;;;10.98;1.90;;;;;;;12.69;100.00;98957.25;5090366;28;20118;-80
2023/07/29 04:29:35;;;;;;;14.63;2.10;;;;;;;12.71;100.00;98952.56;5070751;28;20032;-80
2023/07/29 04:32:02;;;;;;;9.98;1.70;;;;;;;12.71;100.00;98949.91;5072079;27;20681;-81
2023/07/29 04:34:27;;;;;;;12.02;1.83;;;;;;;12.71;100.00;98957.06;5092859;28;20513;-81
2023/07/29 04:36:53;;;;;;;10.88;2.25;;;;;;;12.67;100.00;98956.63;5085002;28;20035;-80
2023/07/29 04:39:19;;;;;;;18.52;2.33;;;;;;;12.63;100.00;98955.34;5052786;28;20155;-80
2023/07/29 04:41:46;;;;;;;11.93;2.33;;;;;;;12.59;100.00;98962.91;5087867;28;20027;-81
2023/07/29 04:44:11;;;;;;;16.88;2.65;;;;;;;12.55;100.00;98961.63;5071577;28;20031;-81
2023/07/29 04:46:38;;;;;;;9.38;1.63;;;;;;;12.57;100.00;98964.91;5060832;28;20142;-80
2023/07/29 04:49:04;;;;;;;15.32;2.92;;;;;;;12.57;100.00;98966.75;5070695;28;20028;-81
2023/07/29 04:51:31;;;;;;;10.90;2.20;;;;;;;12.60;100.00;98964.53;5074664;28;20118;-80
2023/07/29 04:53:58;;;;;;;11.02;1.90;;;;;;;12.62;100.00;98969.63;5057770;28;20508;-81
2023/07/29 04:56:24;;;;;;;17.63;2.05;;;;;;;12.62;100.00;98964.34;5075078;28;20030;-80
2023/07/29 04:58:50;;;;;;;19.65;2.22;;;;;;;12.63;100.00;98961.50;5059252;28;20120;-81
2023/07/29 05:01:17;;;;;;;13.00;2.22;;;;;;;12.65;100.00;98964.78;5087406;28;20038;-81
2023/07/29 05:03:42;;;;;;;15.52;2.38;;;;;;;12.70;100.00;98973.97;5074635;28;20024;-81
2023/07/29 05:06:08;;;;;;;12.75;2.25;;;;;;;12.69;100.00;98970.50;5095843;28;20159;-81
2023/07/29 05:08:34;;;;;;;15.75;2.78;;;;;;;12.73;100.00;98974.41;5091914;28;20695;-81
2023/07/29 05:11:00;;;;;;;15.65;2.72;;;;;;;12.70;100.00;98972.13;5073986;28;20062;-81
2023/07/29 05:13:26;;;;;;;19.73;2.25;;;;;;;12.71;100.00;98971.13;5093809;28;20481;-81
2023/07/29 05:15:52;;;;;;;12.60;2.15;;;;;;;12.69;100.00;98975.81;5083923;28;20118;-81
2023/07/29 05:18:18;;;;;;;15.20;2.45;;;;;;;12.64;100.00;98975.56;5093440;28;20047;-81
2023/07/29 05:20:44;;;;;;;14.60;2.00;;;;;;;12.64;100.00;98975.56;5095707;27;20035;-80
2023/07/29 05:23:10;;;;;;;16.23;2.47;;;;;;;12.61;100.00;98974.09;5055686;28;20031;-80
2023/07/29 05:25:36;;;;;;;15.15;2.60;;;;;;;12.60;100.00;98983.09;5072268;28;20097;-81
2023/07/29 05:28:02;;;;;;;12.63;2.00;;;;;;;12.59;100.00;98984.09;5095109;28;20036;-80
2023/07/29 05:30:31;;;;;;;16.77;2.15;;;;;;;12.58;100.00;98977.16;5094546;28;20419;-80
2023/07/29 05:32:57;;;;;;;18.42;2.40;;;;;;;12.53;100.00;98976.94;5072933;28;20103;-81
2023/07/29 05:35:24;;;;;;;14.05;2.28;;;;;;;12.49;100.00;98980.97;5071870;28;20024;-80
2023/07/29 05:37:50;;;;;;;11.38;2.15;;;;;;;12.48;100.00;98971.38;5075932;28;20058;-80
2023/07/29 05:40:16;;;;;;;14.43;2.10;;;;;;;12.48;100.00;98968.72;5089983;28;20112;-81
2023/07/29 05:42:44;;;;;;;16.52;2.10;;;;;;;12.49;100.00;98971.19;5082033;28;20042;-81
2023/07/29 05:45:11;;;;;;;12.10;2.00;;;;;;;12.50;100.00;98972.03;5092297;28;20112;-81
2023/07/29 05:47:37;;;;;;;10.82;2.33;;;;;;;12.51;100.00;98971.81;5105859;28;20032;-81
2023/07/29 05:50:04;;;;;;;8.43;1.88;;;;;;;12.52;100.00;98975.28;5103471;28;20051;-81
2023/07/29 05:52:31;;;;;;;15.73;2.05;;;;;;;12.55;100.00;98977.53;5074982;27;20031;-81
2023/07/29 05:54:57;;;;;;;15.60;2.15;;;;;;;12.57;100.00;98983.47;5066404;28;20059;-81
2023/07/29 05:57:23;;;;;;;14.88;2.30;;;;;;;12.61;100.00;98979.41;5093583;28;20058;-81
2023/07/29 05:59:48;;;;;;;12.80;1.92;;;;;;;12.64;100.00;98981.69;5091310;28;20031;-81
2023/07/29 06:02:14;;;;;;;20.30;2.10;;;;;;;12.68;100.00;98981.31;5093232;28;20031;-81
2023/07/29 06:04:40;;;;;;;18.50;2.33;;;;;;;12.70;100.00;98980.09;5091260;28;20923;-81
2023/07/29 06:07:07;;;;;;;15.88;2.95;;;;;;;12.73;100.00;98976.22;5099465;27;20107;-81
2023/07/29 06:09:34;;;;;;;11.63;2.55;;;;;;;12.80;100.00;98977.09;5078951;28;20036;-80
2023/07/29 06:11:59;;;;;;;9.25;1.88;;;;;;;12.90;100.00;98968.75;5094975;28;20043;-80
2023/07/29 06:14:25;;;;;;;14.48;2.30;;;;;;;12.99;100.00;98974.75;5078694;28;20088;-81
2023/07/29 06:16:52;;;;;;;13.57;1.80;;;;;;;13.06;100.00;98980.88;5074212;28;20497;-80
2023/07/29 06:19:18;;;;;;;11.30;2.25;;;;;;;13.14;100.00;98975.41;5089482;28;20639;-80
2023/07/29 06:21:44;;;;;;;13.30;2.35;;;;;;;13.19;100.00;98980.13;5072598;28;20040;-81
2023/07/29 06:24:10;;;;;;;14.90;2.10;;;;;;;13.22;100.00;98979.72;5078901;28;20093;-81
2023/07/29 06:26:35;;;;;;;12.32;2.05;;;;;;;13.27;100.00;98981.78;5089030;27;20040;-80
2023/07/29 06:29:01;;;;;;;13.65;2.10;;;;;;;13.31;100.00;98982.22;5113804;27;20524;-81
2023/07/29 06:31:27;;;;;;;13.80;2.00;;;;;;;13.30;100.00;98984.03;5103923;27;20031;-81
2023/07/29 06:33:54;;;;;;;16.88;2.13;;;;;;;13.32;100.00;98982.03;5093214;28;20040;-81
2023/07/29 06:36:20;;;;;;;13.02;2.05;;;;;;;13.34;100.00;98979.16;5096982;28;20502;-80
2023/07/29 06:38:46;;;;;;;10.32;1.98;;;;;;;13.34;100.00;98979.16;5105408;28;20039;-81
2023/07/29 06:41:12;;;;;;;18.52;3.03;;;;;;;13.36;100.00;98982.44;5081724;28;20024;-80
2023/07/29 06:43:37;;;;;;;11.50;2.05;;;;;;;13.38;100.00;98985.69;5062660;28;20035;-80
2023/07/29 06:46:03;;;;;;;11.38;2.30;;;;;;;13.38;100.00;98989.19;5066473;28;20046;-80
2023/07/29 06:48:29;;;;;;;15.95;2.22;;;;;;;13.42;100.00;98984.31;5111132;27;20031;-79
2023/07/29 06:50:55;;;;;;;10.63;1.98;;;;;;;13.47;100.00;98984.50;5096257;27;20036;-79
2023/07/29 06:53:21;;;;;;;9.82;1.48;;;;;;;13.58;100.00;98992.94;5081447;28;20040;-80
2023/07/29 06:55:47;;;;;;;9.27;1.70;;;;;;;13.67;100.00;98988.25;5099646;27;20040;-80
2023/07/29 06:58:13;;;;;;;9.00;1.63;;;;;;;13.71;100.00;98990.31;5071719;28;20036;-80
2023/07/29 07:00:39;;;;;;;11.00;2.03;;;;;;;13.77;100.00;98996.69;5101561;27;20501;-80
2023/07/29 07:03:05;;;;;;;11.48;2.22;;;;;;;13.83;100.00;98987.06;5071568;28;20036;-81
2023/07/29 07:05:30;;;;;;;10.85;1.50;;;;;;;13.88;100.00;99001.41;5101734;27;20504;-80
2023/07/29 07:07:56;;;;;;;15.57;2.03;;;;;;;13.99;100.00;99005.28;5078276;28;20035;-80
2023/07/29 07:10:22;;;;;;;8.23;1.92;;;;;;;14.04;100.00;99004.69;5058986;28;20035;-80
2023/07/29 07:12:47;;;;;;;10.27;1.75;;;;;;;14.11;100.00;99013.47;5089816;27;20032;-80
2023/07/29 07:15:13;;;;;;;7.32;1.38;;;;;;;14.17;100.00;99008.38;5087933;28;20501;-80
2023/07/29 07:17:39;;;;;;;7.88;1.98;;;;;;;14.24;100.00;99025.13;5086838;28;20051;-80
2023/07/29 07:20:05;;;;;;;5.75;1.42;;;;;;;14.28;100.00;99013.09;5093142;28;20039;-80
2023/07/29 07:22:31;;;;;;;7.72;1.65;;;;;;;14.28;100.00;99021.06;5092939;28;20102;-80
2023/07/29 07:24:57;;;;;;;13.50;1.33;;;;;;;14.31;100.00;99010.00;5085111;28;20084;-80
2023/07/29 07:27:23;;;;;;;11.73;1.67;;;;;;;14.31;100.00;99015.31;5100852;28;20076;-80
2023/07/29 07:29:49;;;;;;;11.82;1.95;;;;;;;14.33;100.00;99017.78;5078848;28;20047;-80
2023/07/29 07:32:14;;;;;;;14.95;2.05;;;;;;;14.32;100.00;99016.94;5104543;28;20032;-80
2023/07/29 07:34:40;;;;;;;7.97;2.03;;;;;;;14.33;100.00;99020.44;5100234;27;20039;-80
2023/07/29 07:37:06;;;;;;;17.40;2.50;;;;;;;14.32;100.00;99018.78;5083733;28;20485;-80
2023/07/29 07:39:32;;;;;;;9.38;1.98;;;;;;;14.32;100.00;99016.94;5088413;28;20504;-80
2023/07/29 07:41:58;;;;;;;8.48;1.65;;;;;;;14.41;100.00;99022.06;5093122;28;20031;-80
2023/07/29 07:44:26;;;;;;;9.85;1.65;;;;;;;14.50;100.00;99023.50;5085452;28;20027;-80
2023/07/29 07:46:53;;;;;;;13.65;2.33;;;;;;;14.60;100.00;99023.91;5090059;28;20036;-81
2023/07/29 07:49:19;;;;;;;12.20;2.05;;;;;;;14.68;100.00;99025.53;5088414;28;20032;-81
2023/07/29 07:51:45;;;;;;;12.25;2.25;;;;;;;14.78;100.00;99022.44;5102002;28;20047;-81
2023/07/29 07:54:10;;;;;;;11.02;2.17;;;;;;;14.90;100.00;99021.84;5090538;28;20036;-81
2023/07/29 07:56:36;;;;;;;9.73;1.77;;;;;;;15.02;100.00;99012.19;5085177;28;20040;-80
2023/07/29 07:59:02;;;;;;;14.20;2.30;;;;;;;15.15;100.00;99019.31;5091704;28;20054;-81
2023/07/29 08:01:34;;;;;;;12.77;2.50;;;;;;;15.26;100.00;99017.84;5085727;28;20085;-80
2023/07/29 08:04:00;;;;;;;12.27;2.10;;;;;;;15.34;100.00;99017.59;5066944;28;20391;-81
2023/07/29 08:06:26;;;;;;;10.25;1.92;;;;;;;15.45;100.00;99020.66;5083772;28;20039;-80
2023/07/29 08:08:52;;;;;;;11.27;2.08;;;;;;;15.42;100.00;99016.53;5101562;27;20036;-80
2023/07/29 08:11:17;;;;;;;14.18;1.88;;;;;;;15.41;100.00;99006.94;5063234;28;20043;-80
2023/07/29 08:13:43;;;;;;;12.05;2.70;;;;;;;15.41;100.00;99001.63;5107504;28;20421;-80
2023/07/29 08:16:09;;;;;;;14.70;2.28;;;;;;;15.46;100.00;99004.47;5080766;28;20841;-81
2023/07/29 08:18:34;;;;;;;6.95;1.65;;;;;;;15.53;100.00;99007.06;5081962;28;20044;-81
2023/07/29 08:21:04;;;;;;;14.07;2.22;;;;;;;15.65;100.00;99012.56;5068434;28;20516;-80
2023/07/29 08:23:31;;;;;;;11.38;1.85;;;;;;;15.67;100.00;99012.34;5096780;27;20032;-80
2023/07/29 08:26:03;;;;;;;12.13;1.80;;;;;;;15.80;100.00;99012.25;5086326;28;20039;-80
2023/07/29 08:28:34;;;;;;;9.93;2.00;;;;;;;15.88;100.00;99011.19;5087197;28;20789;-80
2023/07/29 08:31:00;;;;;;;12.55;2.22;;;;;;;15.93;100.00;99006.03;5099319;28;20073;-80
2023/07/29 08:33:27;;;;;;;13.60;2.58;;;;;;;15.87;100.00;99015.72;5087527;27;20541;-80
2023/07/29 08:35:52;;;;;;;9.02;2.15;;;;;;;15.85;100.00;99016.94;5081254;28;20561;-80
2023/07/29 08:38:18;;;;;;;10.85;1.70;;;;;;;15.86;100.00;99016.72;5082880;28;20515;-81
2023/07/29 08:41:05;;;;;;;10.77;2.00;;;;;;;15.97;100.00;99023.22;5090308;28;20042;-81
2023/07/29 08:43:32;;;;;;;7.07;1.25;;;;;;;16.12;100.00;99017.63;5080669;28;20448;-81
2023/07/29 08:46:00;;;;;;;6.07;1.17;;;;;;;16.16;100.00;99022.50;5082879;28;20028;-81
2023/07/29 08:48:41;;;;;;;8.80;1.50;;;;;;;16.23;100.00;99020.59;5080386;28;20848;-80
2023/07/29 08:51:09;;;;;;;7.57;1.48;;;;;;;16.26;100.00;99017.50;5075260;28;20048;-81
2023/07/29 08:53:35;;;;;;;12.90;1.58;;;;;;;16.28;100.00;99026.09;5059104;28;20146;-80
2023/07/29 08:56:02;;;;;;;7.72;1.75;;;;;;;16.26;100.00;99030.03;5080879;28;20095;-80
2023/07/29 08:58:28;;;;;;;10.48;2.63;;;;;;;16.25;100.00;99021.22;5094741;28;20036;-81
2023/07/29 09:00:54;;;;;;;12.07;1.65;;;;;;;16.32;100.00;99026.50;5083392;28;20055;-80
2023/07/29 09:03:20;;;;;;;9.00;1.08;;;;;;;16.32;100.00;99026.50;5067264;28;20123;-80
2023/07/29 09:05:47;;;;;;;4.40;1.25;;;;;;;16.34;100.00;99022.56;5099859;28;20039;-80
2023/07/29 09:08:13;;;;;;;5.68;1.27;;;;;;;16.43;100.00;99014.31;5080871;28;20549;-80
2023/07/29 09:10:39;;;;;;;10.38;1.05;;;;;;;16.52;100.00;99029.00;5103613;28;20167;-80
2023/07/29 09:13:05;;;;;;;8.52;1.20;;;;;;;16.60;100.00;99017.22;5070963;28;20081;-81
2023/07/29 09:15:33;;;;;;;5.45;1.20;;;;;;;16.73;100.00;99019.78;5085252;28;20058;-81
2023/07/29 09:18:08;;;;;;;7.05;1.27;;;;;;;16.77;100.00;99019.34;5103292;28;20047;-81
2023/07/29 09:20:34;;;;;;;6.00;1.10;;;;;;;16.72;100.00;99020.00;5086483;28;20032;-81
2023/07/29 09:23:00;;;;;;;6.07;1.10;;;;;;;16.77;100.00;99020.13;5101227;28;20036;-81
2023/07/29 09:25:27;;;;;;;8.25;1.48;;;;;;;16.70;100.00;99030.88;5080269;28;20036;-80
2023/07/29 09:27:53;;;;;;;10.35;1.95;;;;;;;16.61;100.00;99038.34;5102452;28;20078;-80
2023/07/29 09:30:19;;;;;;;6.22;1.73;;;;;;;16.53;100.00;99032.47;5084607;28;20457;-80
2023/07/29 09:32:46;;;;;;;6.70;1.00;;;;;;;16.51;100.00;99031.88;5070552;28;20039;-79
2023/07/29 09:35:12;;;;;;;5.63;1.23;;;;;;;16.52;100.00;99034.31;5071784;28;20036;-81
2023/07/29 09:37:38;;;;;;;8.90;1.35;;;;;;;16.56;100.00;99024.03;5062751;28;20050;-81
2023/07/29 09:40:06;;;;;;;9.40;1.30;;;;;;;16.60;100.00;99033.22;5068723;28;20093;-80
2023/07/29 09:42:32;;;;;;;6.38;1.27;;;;;;;16.55;100.00;99030.38;5071329;28;20366;-81
2023/07/29 09:44:58;;;;;;;9.02;1.45;;;;;;;16.47;100.00;99036.81;5086760;28;20106;-80
2023/07/29 09:47:25;;;;;;;9.38;1.48;;;;;;;16.42;100.00;99037.47;5086174;28;20106;-80
2023/07/29 09:49:52;;;;;;;4.88;1.10;;;;;;;16.37;100.00;99043.47;5067035;28;20059;-79
2023/07/29 09:52:19;;;;;;;3.38;1.15;;;;;;;16.43;100.00;99048.97;5098344;28;20035;-80
2023/07/29 09:54:47;;;;;;;4.38;0.85;;;;;;;16.53;100.00;99048.47;5107031;27;20059;-81
2023/07/29 09:57:18;;;;;;;3.60;0.68;;;;;;;16.63;100.00;99048.00;5049304;28;20043;-81
2023/07/29 09:59:54;;;;;;;7.30;1.20;;;;;;;16.77;100.00;99046.00;5081463;28;20039;-80
2023/07/29 10:02:21;;;;;;;5.28;1.25;;;;;;;16.77;100.00;99054.03;5087211;28;20746;-80
2023/07/29 10:04:47;;;;;;;3.78;0.80;;;;;;;16.82;100.00;99052.31;5088368;28;20039;-80
2023/07/29 10:07:14;;;;;;;5.53;1.17;;;;;;;16.96;100.00;99058.31;5075043;28;20481;-80
2023/07/29 10:09:40;;;;;;;9.27;1.63;;;;;;;17.11;100.00;99054.53;5087897;28;20108;-81
2023/07/29 10:12:07;;;;;;;9.88;1.23;;;;;;;17.12;100.00;99064.16;5088726;28;20509;-80
2023/07/29 10:14:33;;;;;;;5.00;1.40;;;;;;;17.16;100.00;99059.19;5084655;28;20031;-82
2023/07/29 10:17:00;;;;;;;6.35;1.33;;;;;;;17.21;100.00;99060.16;5088952;28;20037;-81
2023/07/29 10:19:26;;;;;;;8.02;1.35;;;;;;;17.28;100.00;99062.75;5083729;27;20089;-81
2023/07/29 10:21:55;;;;;;;3.70;1.00;;;;;;;17.32;100.00;99069.28;5072348;28;20036;-81
2023/07/29 10:24:28;;;;;;;8.52;1.42;;;;;;;17.35;100.00;99057.34;5089661;28;20110;-81
2023/07/29 10:26:58;;;;;;;8.30;1.52;;;;;;;17.33;100.00;99070.09;5056754;28;20133;-81
2023/07/29 10:29:28;;;;;;;7.20;1.30;;;;;;;17.32;100.00;99079.97;5082528;28;20024;-81
2023/07/29 10:31:57;;;;;;;8.93;1.65;;;;;;;17.43;100.00;99082.94;5089983;28;20088;-81
2023/07/29 10:34:24;;;;;;;5.40;1.10;;;;;;;17.60;100.00;99075.94;5059678;28;20036;-81
2023/07/29 10:36:51;;;;;;;8.18;1.42;;;;;;;17.74;100.00;99078.47;5086598;28;20749;-81
2023/07/29 10:39:16;;;;;;;9.43;1.48;;;;;;;17.83;100.00;99081.63;5087264;28;20072;-80
2023/07/29 10:41:54;;;;;;;6.00;1.30;;;;;;;18.00;100.00;99081.78;5074827;28;20032;-81
2023/07/29 10:44:39;;;;;;;10.57;1.30;;;;;;;18.14;100.00;99090.47;5081930;28;20084;-81
2023/07/29 10:47:12;;;;;;;7.50;1.90;;;;;;;18.15;100.00;99084.09;5087624;28;20028;-81
2023/07/29 10:49:41;;;;;;;12.18;1.35;;;;;;;18.07;100.00;99089.72;5071877;28;20039;-81
2023/07/29 10:52:07;;;;;;;7.70;1.38;;;;;;;18.00;100.00;99083.66;5073494;28;20031;-81
2023/07/29 10:54:46;;;;;;;13.38;1.67;;;;;;;17.94;100.00;99086.19;5102000;28;20390;-81
2023/07/29 10:57:30;;;;;;;8.63;1.55;;;;;;;17.97;100.00;99071.56;5057465;28;20393;-81
2023/07/29 10:59:56;;;;;;;7.38;1.48;;;;;;;17.99;100.00;99074.81;5080507;28;20066;-81
2023/07/29 11:02:29;;;;;;;9.38;1.30;;;;;;;18.18;100.00;99080.97;5089777;28;20028;-81
2023/07/29 11:04:55;;;;;;;6.75;1.27;;;;;;;18.28;100.00;99080.41;5103278;28;20397;-81
2023/07/29 11:07:28;;;;;;;10.98;1.92;;;;;;;18.43;100.00;99090.66;5085484;28;20039;-81
2023/07/29 11:10:01;;;;;;;8.38;1.48;;;;;;;18.40;100.00;99083.09;5088334;28;20370;-82
2023/07/29 11:12:42;;;;;;;8.55;1.67;;;;;;;18.42;100.00;99097.06;5086903;27;20092;-81
2023/07/29 11:15:12;;;;;;;11.57;1.77;;;;;;;18.37;100.00;99085.41;5072264;28;20100;-82
2023/07/29 11:18:02;;;;;;;10.80;1.92;;;;;;;18.40;100.00;99093.78;5065773;28;20694;-81
2023/07/29 11:20:32;;;;;;;10.07;1.85;;;;;;;18.27;100.00;99121.56;5069676;28;20572;-81